sensor_id;sensor_type;location;lat;lon;timestamp;pressure;altitude;pressure_sealevel;temperature;humidity
23318;BME280;11831;55.918;37.746;2022-09-30T00:01:40;99131.78;;;13.19;0.00
23318;BME280;11831;55.918;37.746;2022-09-30T00:04:08;99123.31;;;12.44;0.00
23318;BME280;11831;55.918;37.746;2022-09-30T00:06:34;99136.12;;;12.81;0.00
23318;BME280;11831;55.918;37.746;2022-09-30T00:09:01;99130.34;;;12.89;0.00
23318;BME280;11831;55.918;37.746;2022-09-30T00:11:29;99132.06;;;13.00;0.00
23318;BME280;11831;55.918;37.746;2022-09-30T00:13:56;99138.53;;;13.21;0.00
23318;BME280;11831;55.918;37.746;2022-09-30T00:16:25;99125.47;;;12.86;0.00
23318;BME280;11831;55.918;37.746;2022-09-30T00:18:53;99121.84;;;12.75;0.00
23318;BME280;11831;55.918;37.746;2022-09-30T00:21:20;99127.19;;;12.75;0.00
23318;BME280;11831;55.918;37.746;2022-09-30T00:23:46;99124.09;;;12.62;0.00
23318;BME280;11831;55.918;37.746;2022-09-30T00:26:13;99117.41;;;12.64;0.00
23318;BME280;11831;55.918;37.746;2022-09-30T00:28:40;99134.66;;;12.52;0.00
23318;BME280;11831;55.918;37.746;2022-09-30T00:31:07;99131.47;;;12.16;0.00
23318;BME280;11831;55.918;37.746;2022-09-30T00:33:35;99128.88;;;12.82;0.00
23318;BME280;11831;55.918;37.746;2022-09-30T00:36:02;99131.13;;;12.46;0.00
23318;BME280;11831;55.918;37.746;2022-09-30T00:38:28;99141.38;;;12.71;0.00
23318;BME280;11831;55.918;37.746;2022-09-30T00:40:54;99156.91;;;12.30;0.00
23318;BME280;11831;55.918;37.746;2022-09-30T00:46:14;99165.63;;;12.59;0.00
23318;BME280;11831;55.918;37.746;2022-09-30T00:48:41;99151.53;;;12.69;0.00
23318;BME280;11831;55.918;37.746;2022-09-30T00:51:08;99160.22;;;12.37;0.00
23318;BME280;11831;55.918;37.746;2022-09-30T00:53:36;99163.50;;;12.61;0.00
23318;BME280;11831;55.918;37.746;2022-09-30T00:56:16;99176.09;;;12.61;0.00
23318;BME280;11831;55.918;37.746;2022-09-30T00:58:47;99170.25;;;12.64;0.00
23318;BME280;11831;55.918;37.746;2022-09-30T01:01:14;99171.63;;;12.66;0.00
23318;BME280;11831;55.918;37.746;2022-09-30T01:03:44;99171.97;;;12.53;0.00
23318;BME280;11831;55.918;37.746;2022-09-30T01:06:15;99171.63;;;12.66;0.00
23318;BME280;11831;55.918;37.746;2022-09-30T01:08:41;99175.00;;;12.79;0.00
23318;BME280;11831;55.918;37.746;2022-09-30T01:11:08;99171.97;;;12.92;0.00
23318;BME280;11831;55.918;37.746;2022-09-30T01:13:35;99175.25;;;12.77;0.00
23318;BME280;11831;55.918;37.746;2022-09-30T01:29:15;99165.97;;;13.28;0.00
23318;BME280;11831;55.918;37.746;2022-09-30T01:41:51;99172.38;;;12.62;0.00
23318;BME280;11831;55.918;37.746;2022-09-30T01:47:11;99175.94;;;12.67;0.00
23318;BME280;11831;55.918;37.746;2022-09-30T01:57:38;99165.78;;;12.91;0.00
23318;BME280;11831;55.918;37.746;2022-09-30T02:00:08;99169.75;;;12.67;0.00
23318;BME280;11831;55.918;37.746;2022-09-30T02:02:38;99170.69;;;12.39;0.00
23318;BME280;11831;55.918;37.746;2022-09-30T02:05:08;99163.34;;;12.90;0.00
23318;BME280;11831;55.918;37.746;2022-09-30T02:07:41;99165.06;;;12.79;0.00
23318;BME280;11831;55.918;37.746;2022-09-30T02:10:24;99162.69;;;12.61;0.00
23318;BME280;11831;55.918;37.746;2022-09-30T02:12:52;99163.06;;;12.69;0.00
23318;BME280;11831;55.918;37.746;2022-09-30T02:15:21;99167.88;;;12.29;0.00
23318;BME280;11831;55.918;37.746;2022-09-30T02:17:51;99169.00;;;12.33;0.00
23318;BME280;11831;55.918;37.746;2022-09-30T02:22:48;99163.88;;;12.31;0.00
23318;BME280;11831;55.918;37.746;2022-09-30T02:25:20;99178.50;;;12.40;0.00
23318;BME280;11831;55.918;37.746;2022-09-30T02:27:52;99174.56;;;12.48;0.00
23318;BME280;11831;55.918;37.746;2022-09-30T02:30:19;99173.94;;;11.91;0.00
23318;BME280;11831;55.918;37.746;2022-09-30T02:32:47;99169.38;;;12.80;0.00
23318;BME280;11831;55.918;37.746;2022-09-30T02:35:21;99166.62;;;12.75;0.00
23318;BME280;11831;55.918;37.746;2022-09-30T02:37:55;99169.63;;;12.40;0.00
23318;BME280;11831;55.918;37.746;2022-09-30T02:40:28;99160.28;;;12.59;0.00
23318;BME280;11831;55.918;37.746;2022-09-30T02:42:56;99160.75;;;12.78;0.00
23318;BME280;11831;55.918;37.746;2022-09-30T02:45:22;99162.28;;;12.52;0.00
23318;BME280;11831;55.918;37.746;2022-09-30T03:00:11;99164.16;;;11.96;0.00
23318;BME280;11831;55.918;37.746;2022-09-30T03:02:38;99165.41;;;12.44;0.00
23318;BME280;11831;55.918;37.746;2022-09-30T03:05:04;99173.50;;;12.49;0.00
23318;BME280;11831;55.918;37.746;2022-09-30T03:07:31;99169.44;;;12.63;0.00
23318;BME280;11831;55.918;37.746;2022-09-30T03:09:57;99166.25;;;12.66;0.00
23318;BME280;11831;55.918;37.746;2022-09-30T03:20:03;99179.59;;;12.61;0.00
23318;BME280;11831;55.918;37.746;2022-09-30T03:27:55;99180.66;;;12.60;0.00
23318;BME280;11831;55.918;37.746;2022-09-30T03:30:25;99175.06;;;12.45;0.00
23318;BME280;11831;55.918;37.746;2022-09-30T03:35:31;99182.22;;;12.23;0.00
23318;BME280;11831;55.918;37.746;2022-09-30T03:43:19;99187.84;;;12.38;0.00
23318;BME280;11831;55.918;37.746;2022-09-30T03:45:59;99191.94;;;12.62;0.00
23318;BME280;11831;55.918;37.746;2022-09-30T03:48:26;99182.84;;;12.85;0.00
23318;BME280;11831;55.918;37.746;2022-09-30T03:50:54;99197.69;;;12.32;0.00
23318;BME280;11831;55.918;37.746;2022-09-30T03:53:21;99187.72;;;12.50;0.00
23318;BME280;11831;55.918;37.746;2022-09-30T03:55:48;99184.81;;;12.90;0.00
23318;BME280;11831;55.918;37.746;2022-09-30T03:58:16;99171.56;;;12.44;0.00
23318;BME280;11831;55.918;37.746;2022-09-30T04:00:45;99172.19;;;12.68;0.00
23318;BME280;11831;55.918;37.746;2022-09-30T04:03:12;99177.25;;;12.48;0.00
23318;BME280;11831;55.918;37.746;2022-09-30T04:05:38;99175.19;;;12.72;0.00
23318;BME280;11831;55.918;37.746;2022-09-30T04:08:04;99172.69;;;12.49;0.00
23318;BME280;11831;55.918;37.746;2022-09-30T04:10:30;99178.87;;;12.49;0.00
23318;BME280;11831;55.918;37.746;2022-09-30T04:12:56;99168.88;;;12.83;0.00
23318;BME280;11831;55.918;37.746;2022-09-30T04:15:22;99177.19;;;12.43;0.00
23318;BME280;11831;55.918;37.746;2022-09-30T04:17:48;99175.81;;;12.40;0.00
23318;BME280;11831;55.918;37.746;2022-09-30T04:20:14;99179.91;;;12.09;0.00
23318;BME280;11831;55.918;37.746;2022-09-30T04:22:40;99174.94;;;12.35;0.00
23318;BME280;11831;55.918;37.746;2022-09-30T04:25:06;99182.47;;;12.21;0.00
23318;BME280;11831;55.918;37.746;2022-09-30T04:27:32;99187.44;;;12.29;0.00
23318;BME280;11831;55.918;37.746;2022-09-30T04:29:58;99189.78;;;12.42;0.00
23318;BME280;11831;55.918;37.746;2022-09-30T04:32:24;99199.47;;;12.27;0.00
23318;BME280;11831;55.918;37.746;2022-09-30T04:34:51;99209.28;;;12.38;0.00
23318;BME280;11831;55.918;37.746;2022-09-30T04:37:18;99199.38;;;12.55;0.00
23318;BME280;11831;55.918;37.746;2022-09-30T04:39:45;99194.91;;;12.83;0.00
23318;BME280;11831;55.918;37.746;2022-09-30T04:42:11;99196.53;;;12.84;0.00
23318;BME280;11831;55.918;37.746;2022-09-30T04:44:37;99204.84;;;12.27;0.00
23318;BME280;11831;55.918;37.746;2022-09-30T04:47:03;99204.25;;;12.41;0.00
23318;BME280;11831;55.918;37.746;2022-09-30T04:49:29;99202.75;;;12.67;0.00
23318;BME280;11831;55.918;37.746;2022-09-30T04:51:55;99205.84;;;12.98;0.00
23318;BME280;11831;55.918;37.746;2022-09-30T04:54:21;99207.28;;;13.05;0.00
23318;BME280;11831;55.918;37.746;2022-09-30T04:56:48;99209.94;;;12.45;0.00
23318;BME280;11831;55.918;37.746;2022-09-30T04:59:14;99209.91;;;13.00;0.00
23318;BME280;11831;55.918;37.746;2022-09-30T05:01:40;99203.44;;;13.18;0.00
23318;BME280;11831;55.918;37.746;2022-09-30T05:04:08;99206.03;;;13.13;0.00
23318;BME280;11831;55.918;37.746;2022-09-30T05:06:35;99193.84;;;13.05;0.00
23318;BME280;11831;55.918;37.746;2022-09-30T05:09:01;99199.03;;;12.90;0.00
23318;BME280;11831;55.918;37.746;2022-09-30T05:11:28;99200.44;;;13.36;0.00
23318;BME280;11831;55.918;37.746;2022-09-30T05:13:54;99192.47;;;13.03;0.00
23318;BME280;11831;55.918;37.746;2022-09-30T05:16:20;99195.03;;;13.15;0.00
23318;BME280;11831;55.918;37.746;2022-09-30T05:18:46;99187.91;;;13.20;0.00
23318;BME280;11831;55.918;37.746;2022-09-30T05:21:13;99179.69;;;13.10;0.00
23318;BME280;11831;55.918;37.746;2022-09-30T05:23:39;99180.75;;;13.09;0.00
23318;BME280;11831;55.918;37.746;2022-09-30T05:26:06;99187.34;;;13.18;0.00
23318;BME280;11831;55.918;37.746;2022-09-30T05:28:32;99182.62;;;12.48;0.00
23318;BME280;11831;55.918;37.746;2022-09-30T05:30:59;99194.72;;;13.11;0.00
23318;BME280;11831;55.918;37.746;2022-09-30T05:33:26;99183.09;;;12.84;0.00
23318;BME280;11831;55.918;37.746;2022-09-30T05:35:54;99179.22;;;12.74;0.00
23318;BME280;11831;55.918;37.746;2022-09-30T05:38:20;99190.34;;;13.22;0.00
23318;BME280;11831;55.918;37.746;2022-09-30T05:40:46;99186.59;;;13.23;0.00
23318;BME280;11831;55.918;37.746;2022-09-30T05:43:12;99200.41;;;12.93;0.00
23318;BME280;11831;55.918;37.746;2022-09-30T05:45:39;99193.69;;;13.34;0.00
23318;BME280;11831;55.918;37.746;2022-09-30T05:48:05;99186.91;;;13.53;0.00
23318;BME280;11831;55.918;37.746;2022-09-30T05:50:32;99197.94;;;13.30;0.00
23318;BME280;11831;55.918;37.746;2022-09-30T05:52:59;99197.12;;;13.78;0.00
23318;BME280;11831;55.918;37.746;2022-09-30T05:55:25;99204.38;;;13.78;0.00
23318;BME280;11831;55.918;37.746;2022-09-30T05:57:51;99203.84;;;13.81;0.00
23318;BME280;11831;55.918;37.746;2022-09-30T06:00:18;99202.66;;;13.45;0.00
23318;BME280;11831;55.918;37.746;2022-09-30T06:02:44;99210.53;;;13.51;0.00
23318;BME280;11831;55.918;37.746;2022-09-30T06:05:11;99210.38;;;13.90;0.00
23318;BME280;11831;55.918;37.746;2022-09-30T06:07:37;99222.94;;;12.92;0.00
23318;BME280;11831;55.918;37.746;2022-09-30T06:10:04;99211.66;;;13.55;0.00
23318;BME280;11831;55.918;37.746;2022-09-30T06:12:30;99211.22;;;13.95;0.00
23318;BME280;11831;55.918;37.746;2022-09-30T06:14:57;99213.00;;;13.31;0.00
23318;BME280;11831;55.918;37.746;2022-09-30T06:17:22;99206.47;;;14.08;0.00
23318;BME280;11831;55.918;37.746;2022-09-30T06:19:49;99205.72;;;13.80;0.00
23318;BME280;11831;55.918;37.746;2022-09-30T06:22:17;99203.50;;;14.04;0.00
23318;BME280;11831;55.918;37.746;2022-09-30T06:24:44;99195.88;;;14.23;0.00
23318;BME280;11831;55.918;37.746;2022-09-30T06:27:10;99198.06;;;14.31;0.00
23318;BME280;11831;55.918;37.746;2022-09-30T06:29:36;99198.03;;;14.26;0.00
23318;BME280;11831;55.918;37.746;2022-09-30T06:32:03;99203.34;;;14.16;0.00
23318;BME280;11831;55.918;37.746;2022-09-30T06:34:29;99214.22;;;13.72;0.00
23318;BME280;11831;55.918;37.746;2022-09-30T06:36:55;99206.50;;;14.40;0.00
23318;BME280;11831;55.918;37.746;2022-09-30T06:39:21;99207.06;;;14.10;0.00
23318;BME280;11831;55.918;37.746;2022-09-30T06:41:47;99208.75;;;14.21;0.00
23318;BME280;11831;55.918;37.746;2022-09-30T06:44:15;99213.59;;;14.19;0.00
23318;BME280;11831;55.918;37.746;2022-09-30T06:46:42;99205.97;;;14.80;0.00
23318;BME280;11831;55.918;37.746;2022-09-30T06:49:08;99204.44;;;14.52;0.00
23318;BME280;11831;55.918;37.746;2022-09-30T06:51:34;99201.63;;;14.74;0.00
23318;BME280;11831;55.918;37.746;2022-09-30T06:54:00;99205.06;;;14.32;0.00
23318;BME280;11831;55.918;37.746;2022-09-30T06:56:27;99201.56;;;14.69;0.00
23318;BME280;11831;55.918;37.746;2022-09-30T06:58:53;99201.28;;;14.28;0.00
23318;BME280;11831;55.918;37.746;2022-09-30T07:01:21;99203.84;;;14.87;0.00
23318;BME280;11831;55.918;37.746;2022-09-30T07:03:49;99212.00;;;14.55;0.00
23318;BME280;11831;55.918;37.746;2022-09-30T07:06:20;99207.16;;;15.04;0.00
23318;BME280;11831;55.918;37.746;2022-09-30T07:08:46;99203.06;;;14.91;0.00
23318;BME280;11831;55.918;37.746;2022-09-30T07:11:12;99203.72;;;15.24;0.00
23318;BME280;11831;55.918;37.746;2022-09-30T07:13:42;99205.03;;;15.11;0.00
23318;BME280;11831;55.918;37.746;2022-09-30T07:16:09;99195.19;;;15.37;0.00
23318;BME280;11831;55.918;37.746;2022-09-30T07:18:36;99205.56;;;15.08;0.00
23318;BME280;11831;55.918;37.746;2022-09-30T07:21:03;99212.47;;;14.89;0.00
23318;BME280;11831;55.918;37.746;2022-09-30T07:23:29;99216.59;;;15.07;0.00
23318;BME280;11831;55.918;37.746;2022-09-30T07:25:57;99208.50;;;15.84;0.00
23318;BME280;11831;55.918;37.746;2022-09-30T07:28:26;99211.75;;;15.97;0.00
23318;BME280;11831;55.918;37.746;2022-09-30T07:30:57;99213.41;;;15.20;0.00
23318;BME280;11831;55.918;37.746;2022-09-30T07:33:25;99222.28;;;16.08;0.00
23318;BME280;11831;55.918;37.746;2022-09-30T07:35:54;99226.81;;;15.82;0.00
23318;BME280;11831;55.918;37.746;2022-09-30T07:38:21;99218.75;;;16.64;0.00
23318;BME280;11831;55.918;37.746;2022-09-30T07:40:55;99211.75;;;16.58;0.00
23318;BME280;11831;55.918;37.746;2022-09-30T07:43:23;99207.16;;;16.53;0.00
23318;BME280;11831;55.918;37.746;2022-09-30T07:45:50;99199.34;;;16.31;0.00
23318;BME280;11831;55.918;37.746;2022-09-30T07:48:16;99203.06;;;16.91;0.00
23318;BME280;11831;55.918;37.746;2022-09-30T07:51:12;99198.22;;;16.63;0.00
23318;BME280;11831;55.918;37.746;2022-09-30T07:53:40;99190.12;;;16.63;0.00
23318;BME280;11831;55.918;37.746;2022-09-30T07:56:06;99198.09;;;17.14;0.00
23318;BME280;11831;55.918;37.746;2022-09-30T07:58:33;99216.03;;;16.84;0.00
23318;BME280;11831;55.918;37.746;2022-09-30T08:01:00;99206.06;;;17.44;0.00
23318;BME280;11831;55.918;37.746;2022-09-30T08:03:26;99212.59;;;17.33;0.00
23318;BME280;11831;55.918;37.746;2022-09-30T08:05:52;99209.94;;;17.28;0.00
23318;BME280;11831;55.918;37.746;2022-09-30T08:08:18;99207.84;;;17.64;0.00
23318;BME280;11831;55.918;37.746;2022-09-30T08:10:44;99212.28;;;17.50;0.00
23318;BME280;11831;55.918;37.746;2022-09-30T08:13:10;99207.03;;;17.63;0.00
23318;BME280;11831;55.918;37.746;2022-09-30T08:15:41;99205.25;;;17.44;0.00
23318;BME280;11831;55.918;37.746;2022-09-30T08:18:07;99203.63;;;17.43;0.00
23318;BME280;11831;55.918;37.746;2022-09-30T08:20:33;99206.19;;;17.78;0.00
23318;BME280;11831;55.918;37.746;2022-09-30T08:22:59;99207.81;;;17.74;0.00
23318;BME280;11831;55.918;37.746;2022-09-30T08:25:25;99208.87;;;18.17;0.00
23318;BME280;11831;55.918;37.746;2022-09-30T08:27:52;99203.88;;;18.29;0.00
23318;BME280;11831;55.918;37.746;2022-09-30T08:30:19;99202.69;;;17.73;0.00
23318;BME280;11831;55.918;37.746;2022-09-30T08:32:45;99194.06;;;18.05;0.00
23318;BME280;11831;55.918;37.746;2022-09-30T08:35:11;99194.53;;;18.17;0.00
23318;BME280;11831;55.918;37.746;2022-09-30T08:37:36;99192.41;;;17.75;0.00
23318;BME280;11831;55.918;37.746;2022-09-30T08:40:03;99191.69;;;17.98;0.00
23318;BME280;11831;55.918;37.746;2022-09-30T08:47:52;99179.09;;;18.17;0.00
23318;BME280;11831;55.918;37.746;2022-09-30T08:50:33;99178.47;;;18.25;0.00
23318;BME280;11831;55.918;37.746;2022-09-30T08:53:02;99182.50;;;18.62;0.00
23318;BME280;11831;55.918;37.746;2022-09-30T08:55:32;99180.38;;;18.54;0.00
23318;BME280;11831;55.918;37.746;2022-09-30T08:58:00;99187.41;;;19.08;0.00
23318;BME280;11831;55.918;37.746;2022-09-30T09:00:27;99183.34;;;19.29;0.00
23318;BME280;11831;55.918;37.746;2022-09-30T09:03:02;99182.22;;;19.11;0.00
23318;BME280;11831;55.918;37.746;2022-09-30T09:08:00;99175.00;;;19.44;0.00
23318;BME280;11831;55.918;37.746;2022-09-30T09:10:35;99173.62;;;19.04;0.00
23318;BME280;11831;55.918;37.746;2022-09-30T09:20:57;99167.91;;;19.30;0.00
23318;BME280;11831;55.918;37.746;2022-09-30T09:23:25;99167.81;;;19.35;0.00
23318;BME280;11831;55.918;37.746;2022-09-30T09:25:51;99161.75;;;19.00;0.00
23318;BME280;11831;55.918;37.746;2022-09-30T09:31:00;99153.69;;;19.75;0.00
23318;BME280;11831;55.918;37.746;2022-09-30T09:33:28;99164.28;;;19.15;0.00
23318;BME280;11831;55.918;37.746;2022-09-30T09:43:41;99175.66;;;19.36;0.00
23318;BME280;11831;55.918;37.746;2022-09-30T09:48:44;99185.78;;;19.07;0.00
23318;BME280;11831;55.918;37.746;2022-09-30T09:51:27;99184.53;;;19.42;0.00
23318;BME280;11831;55.918;37.746;2022-09-30T09:53:56;99184.38;;;19.52;0.00
23318;BME280;11831;55.918;37.746;2022-09-30T09:56:25;99180.69;;;19.67;0.00
23318;BME280;11831;55.918;37.746;2022-09-30T10:04:19;99163.81;;;19.70;0.00
23318;BME280;11831;55.918;37.746;2022-09-30T10:09:21;99172.69;;;20.27;0.00
23318;BME280;11831;55.918;37.746;2022-09-30T10:11:47;99174.47;;;20.77;0.00
23318;BME280;11831;55.918;37.746;2022-09-30T10:14:17;99174.59;;;20.26;0.00
23318;BME280;11831;55.918;37.746;2022-09-30T10:16:45;99175.94;;;19.35;0.00
23318;BME280;11831;55.918;37.746;2022-09-30T10:19:18;99159.94;;;19.57;0.00
23318;BME280;11831;55.918;37.746;2022-09-30T10:21:45;99166.03;;;19.68;0.00
23318;BME280;11831;55.918;37.746;2022-09-30T10:24:17;99171.59;;;19.76;0.00
23318;BME280;11831;55.918;37.746;2022-09-30T10:26:44;99172.72;;;19.89;0.00
23318;BME280;11831;55.918;37.746;2022-09-30T10:32:06;99159.59;;;19.64;0.00
23318;BME280;11831;55.918;37.746;2022-09-30T10:34:35;99161.88;;;19.51;0.00
23318;BME280;11831;55.918;37.746;2022-09-30T10:37:06;99171.69;;;19.29;0.00
23318;BME280;11831;55.918;37.746;2022-09-30T10:39:34;99156.47;;;19.51;0.00
23318;BME280;11831;55.918;37.746;2022-09-30T10:44:26;99165.91;;;19.35;0.00
23318;BME280;11831;55.918;37.746;2022-09-30T10:46:57;99158.16;;;19.47;0.00
23318;BME280;11831;55.918;37.746;2022-09-30T10:49:41;99157.91;;;20.33;0.00
23318;BME280;11831;55.918;37.746;2022-09-30T10:52:29;99160.97;;;20.12;0.00
23318;BME280;11831;55.918;37.746;2022-09-30T10:54:57;99166.41;;;20.45;0.00
23318;BME280;11831;55.918;37.746;2022-09-30T11:00:06;99170.94;;;22.26;0.00
23318;BME280;11831;55.918;37.746;2022-09-30T11:02:48;99168.47;;;22.78;0.00
23318;BME280;11831;55.918;37.746;2022-09-30T11:05:19;99169.34;;;22.56;0.00
23318;BME280;11831;55.918;37.746;2022-09-30T11:13:09;99155.69;;;21.58;0.00
23318;BME280;11831;55.918;37.746;2022-09-30T11:15:46;99159.25;;;22.26;0.00
23318;BME280;11831;55.918;37.746;2022-09-30T11:18:20;99160.25;;;21.72;0.00
23318;BME280;11831;55.918;37.746;2022-09-30T11:20:53;99165.78;;;22.47;0.00
23318;BME280;11831;55.918;37.746;2022-09-30T11:23:29;99165.03;;;22.33;0.00
23318;BME280;11831;55.918;37.746;2022-09-30T11:26:02;99173.97;;;22.25;0.00
23318;BME280;11831;55.918;37.746;2022-09-30T11:29:17;99158.94;;;21.83;0.00
23318;BME280;11831;55.918;37.746;2022-09-30T11:31:26;99157.75;;;21.75;0.00
23318;BME280;11831;55.918;37.746;2022-09-30T11:38:59;99173.53;;;22.62;0.00
23318;BME280;11831;55.918;37.746;2022-09-30T11:41:30;99179.38;;;22.16;0.00
23318;BME280;11831;55.918;37.746;2022-09-30T11:44:13;99175.03;;;21.57;0.00
23318;BME280;11831;55.918;37.746;2022-09-30T11:49:29;99159.78;;;21.33;0.00
23318;BME280;11831;55.918;37.746;2022-09-30T11:54:49;99164.22;;;21.02;0.00
23318;BME280;11831;55.918;37.746;2022-09-30T12:02:39;99174.38;;;20.55;0.00
23318;BME280;11831;55.918;37.746;2022-09-30T12:07:45;99177.19;;;21.46;0.00
23318;BME280;11831;55.918;37.746;2022-09-30T12:10:17;99186.78;;;21.16;0.00
23318;BME280;11831;55.918;37.746;2022-09-30T12:12:47;99183.31;;;21.38;0.00
23318;BME280;11831;55.918;37.746;2022-09-30T12:15:15;99188.25;;;21.86;0.00
23318;BME280;11831;55.918;37.746;2022-09-30T12:17:43;99187.44;;;21.85;0.00
23318;BME280;11831;55.918;37.746;2022-09-30T12:22:54;99193.00;;;20.75;0.00
23318;BME280;11831;55.918;37.746;2022-09-30T12:25:30;99186.84;;;21.11;0.00
23318;BME280;11831;55.918;37.746;2022-09-30T12:30:23;99188.50;;;20.85;0.00
23318;BME280;11831;55.918;37.746;2022-09-30T12:33:01;99189.09;;;20.95;0.00
23318;BME280;11831;55.918;37.746;2022-09-30T12:40:53;99192.16;;;20.48;0.00
23318;BME280;11831;55.918;37.746;2022-09-30T12:43:27;99198.19;;;20.44;0.00
23318;BME280;11831;55.918;37.746;2022-09-30T12:46:00;99198.13;;;20.31;0.00
23318;BME280;11831;55.918;37.746;2022-09-30T12:48:33;99188.41;;;20.43;0.00
23318;BME280;11831;55.918;37.746;2022-09-30T12:51:00;99188.56;;;20.01;0.00
23318;BME280;11831;55.918;37.746;2022-09-30T12:53:27;99188.53;;;20.20;0.00
23318;BME280;11831;55.918;37.746;2022-09-30T12:56:00;99190.31;;;20.10;0.00
23318;BME280;11831;55.918;37.746;2022-09-30T12:58:29;99190.19;;;20.34;0.00
23318;BME280;11831;55.918;37.746;2022-09-30T13:01:00;99191.72;;;20.40;0.00
23318;BME280;11831;55.918;37.746;2022-09-30T13:03:28;99181.84;;;20.31;0.00
23318;BME280;11831;55.918;37.746;2022-09-30T13:06:08;99184.16;;;19.48;0.00
23318;BME280;11831;55.918;37.746;2022-09-30T13:08:41;99178.31;;;20.30;0.00
23318;BME280;11831;55.918;37.746;2022-09-30T13:11:20;99176.94;;;20.14;0.00
23318;BME280;11831;55.918;37.746;2022-09-30T13:14:10;99173.47;;;19.95;0.00
23318;BME280;11831;55.918;37.746;2022-09-30T13:19:24;99174.94;;;20.20;0.00
23318;BME280;11831;55.918;37.746;2022-09-30T13:27:32;99191.06;;;19.78;0.00
23318;BME280;11831;55.918;37.746;2022-09-30T13:29:58;99192.19;;;19.96;0.00
23318;BME280;11831;55.918;37.746;2022-09-30T13:32:34;99190.44;;;19.68;0.00
23318;BME280;11831;55.918;37.746;2022-09-30T13:35:24;99195.19;;;19.76;0.00
23318;BME280;11831;55.918;37.746;2022-09-30T13:38:08;99203.09;;;19.72;0.00
23318;BME280;11831;55.918;37.746;2022-09-30T13:40:34;99205.22;;;19.75;0.00
23318;BME280;11831;55.918;37.746;2022-09-30T13:43:01;99203.78;;;19.64;0.00
23318;BME280;11831;55.918;37.746;2022-09-30T13:45:30;99207.06;;;19.61;0.00
23318;BME280;11831;55.918;37.746;2022-09-30T13:48:06;99200.41;;;19.72;0.00
23318;BME280;11831;55.918;37.746;2022-09-30T13:50:41;99213.47;;;19.46;0.00
23318;BME280;11831;55.918;37.746;2022-09-30T13:53:16;99223.50;;;19.46;0.00
23318;BME280;11831;55.918;37.746;2022-09-30T13:55:46;99217.56;;;19.68;0.00
23318;BME280;11831;55.918;37.746;2022-09-30T14:00:46;99214.66;;;19.59;0.00
23318;BME280;11831;55.918;37.746;2022-09-30T14:05:54;99207.53;;;19.44;0.00
23318;BME280;11831;55.918;37.746;2022-09-30T14:24:08;99229.06;;;19.36;0.00
23318;BME280;11831;55.918;37.746;2022-09-30T14:27:39;99228.34;;;19.49;0.00
23318;BME280;11831;55.918;37.746;2022-09-30T14:32:12;99245.78;;;18.95;0.00
23318;BME280;11831;55.918;37.746;2022-09-30T14:34:39;99247.94;;;18.98;0.00
23318;BME280;11831;55.918;37.746;2022-09-30T14:37:10;99249.94;;;19.11;0.00
23318;BME280;11831;55.918;37.746;2022-09-30T14:39:39;99247.13;;;19.21;0.00
23318;BME280;11831;55.918;37.746;2022-09-30T14:42:09;99251.59;;;18.83;0.00
23318;BME280;11831;55.918;37.746;2022-09-30T14:44:38;99244.81;;;18.86;0.00
23318;BME280;11831;55.918;37.746;2022-09-30T14:47:05;99249.13;;;18.87;0.00
23318;BME280;11831;55.918;37.746;2022-09-30T14:49:32;99231.66;;;18.74;0.00
23318;BME280;11831;55.918;37.746;2022-09-30T14:52:01;99245.31;;;18.59;0.00
23318;BME280;11831;55.918;37.746;2022-09-30T14:54:28;99250.81;;;18.15;0.00
23318;BME280;11831;55.918;37.746;2022-09-30T14:56:56;99258.19;;;18.43;0.00
23318;BME280;11831;55.918;37.746;2022-09-30T14:59:27;99257.91;;;18.11;0.00
23318;BME280;11831;55.918;37.746;2022-09-30T15:01:56;99267.59;;;18.17;0.00
23318;BME280;11831;55.918;37.746;2022-09-30T15:04:34;99259.84;;;18.00;0.00
23318;BME280;11831;55.918;37.746;2022-09-30T15:07:03;99261.78;;;17.94;0.00
23318;BME280;11831;55.918;37.746;2022-09-30T15:12:02;99264.38;;;18.10;0.00
23318;BME280;11831;55.918;37.746;2022-09-30T15:14:29;99263.59;;;18.04;0.00
23318;BME280;11831;55.918;37.746;2022-09-30T15:16:58;99264.44;;;17.99;0.00
23318;BME280;11831;55.918;37.746;2022-09-30T15:19:30;99264.97;;;18.02;0.00
23318;BME280;11831;55.918;37.746;2022-09-30T15:22:00;99270.81;;;17.80;0.00
23318;BME280;11831;55.918;37.746;2022-09-30T15:24:28;99266.66;;;17.92;0.00
23318;BME280;11831;55.918;37.746;2022-09-30T15:26:56;99272.94;;;17.83;0.00
23318;BME280;11831;55.918;37.746;2022-09-30T15:29:23;99275.56;;;17.93;0.00
23318;BME280;11831;55.918;37.746;2022-09-30T15:32:01;99279.28;;;18.07;0.00
23318;BME280;11831;55.918;37.746;2022-09-30T15:34:28;99280.22;;;17.87;0.00
23318;BME280;11831;55.918;37.746;2022-09-30T15:36:59;99294.06;;;17.65;0.00
23318;BME280;11831;55.918;37.746;2022-09-30T15:39:36;99290.59;;;17.60;0.00
23318;BME280;11831;55.918;37.746;2022-09-30T15:42:27;99297.34;;;17.67;0.00
23318;BME280;11831;55.918;37.746;2022-09-30T15:44:55;99300.28;;;17.66;0.00
23318;BME280;11831;55.918;37.746;2022-09-30T15:47:22;99301.44;;;17.55;0.00
23318;BME280;11831;55.918;37.746;2022-09-30T15:49:53;99305.97;;;17.69;0.00
23318;BME280;11831;55.918;37.746;2022-09-30T15:52:27;99305.44;;;17.67;0.00
23318;BME280;11831;55.918;37.746;2022-09-30T15:54:56;99311.44;;;17.54;0.00
23318;BME280;11831;55.918;37.746;2022-09-30T16:00:26;99313.34;;;17.54;0.00
23318;BME280;11831;55.918;37.746;2022-09-30T16:03:07;99316.06;;;17.38;0.00
23318;BME280;11831;55.918;37.746;2022-09-30T16:05:39;99327.16;;;17.47;0.00
23318;BME280;11831;55.918;37.746;2022-09-30T16:08:07;99318.50;;;17.45;0.00
23318;BME280;11831;55.918;37.746;2022-09-30T16:10:34;99325.75;;;17.60;0.00
23318;BME280;11831;55.918;37.746;2022-09-30T16:13:02;99321.19;;;17.40;0.00
23318;BME280;11831;55.918;37.746;2022-09-30T16:15:35;99313.88;;;17.51;0.00
23318;BME280;11831;55.918;37.746;2022-09-30T16:18:03;99316.06;;;17.38;0.00
23318;BME280;11831;55.918;37.746;2022-09-30T16:20:29;99320.72;;;17.23;0.00